createdAt,value
2019-01-25T00:02:07.778Z,-1.20
2019-01-25T00:04:38.546Z,-1.20
2019-01-25T00:07:09.342Z,-1.20
2019-01-25T00:09:44.013Z,-1.20
2019-01-25T00:12:14.954Z,-1.20
2019-01-25T00:14:45.799Z,-1.30
2019-01-25T00:17:16.694Z,-1.30
2019-01-25T00:19:47.612Z,-1.40
2019-01-25T00:22:18.463Z,-1.30
2019-01-25T00:24:49.250Z,-1.30
2019-01-25T00:27:20.136Z,-1.30
2019-01-25T00:29:50.982Z,-1.20
2019-01-25T00:32:21.890Z,-1.20
2019-01-25T00:34:52.812Z,-1.20
2019-01-25T00:37:24.110Z,-1.20
2019-01-25T00:39:54.990Z,-1.30
2019-01-25T00:42:25.866Z,-1.40
2019-01-25T00:44:56.535Z,-1.40
2019-01-25T00:47:27.312Z,-1.40
2019-01-25T00:49:58.219Z,-1.40
2019-01-25T00:52:28.988Z,-1.30
2019-01-25T00:54:59.745Z,-1.40
2019-01-25T00:57:30.543Z,-1.40
2019-01-25T01:00:01.340Z,-1.40
2019-01-25T01:02:32.195Z,-1.30
2019-01-25T01:05:03.019Z,-1.40
2019-01-25T01:07:35.434Z,-1.40
2019-01-25T01:10:13.737Z,-1.40
2019-01-25T01:12:39.134Z,-1.40
2019-01-25T01:15:10.638Z,-1.50
2019-01-25T01:17:41.483Z,-1.40
2019-01-25T01:20:14.318Z,-1.40
2019-01-25T01:22:45.111Z,-1.40
2019-01-25T01:25:15.921Z,-1.50
2019-01-25T01:27:46.973Z,-1.40
2019-01-25T01:30:22.861Z,-1.40
2019-01-25T01:32:54.512Z,-1.40
2019-01-25T01:35:25.271Z,-1.40
2019-01-25T01:37:56.060Z,-1.40
2019-01-25T01:40:29.826Z,-1.40
2019-01-25T01:43:00.643Z,-1.40
2019-01-25T01:45:31.435Z,-1.40
2019-01-25T01:48:02.296Z,-1.40
2019-01-25T01:50:33.095Z,-1.40
2019-01-25T02:09:00.021Z,-1.50
2019-01-25T02:11:30.869Z,-1.50
2019-01-25T02:14:01.685Z,-1.50
2019-01-25T02:16:32.543Z,-1.40
2019-01-25T02:19:03.414Z,-1.40
2019-01-25T02:21:34.279Z,-1.50
2019-01-25T02:24:05.543Z,-1.40
2019-01-25T02:26:36.478Z,-1.50
2019-01-25T02:29:07.246Z,-1.40
2019-01-25T02:31:38.012Z,-1.50
2019-01-25T02:34:08.709Z,-1.40
2019-01-25T02:36:39.580Z,-1.40
2019-01-25T02:39:10.313Z,-1.40
2019-01-25T02:41:41.183Z,-1.40
2019-01-25T02:44:12.413Z,-1.50
2019-01-25T02:46:43.257Z,-1.50
2019-01-25T02:49:14.122Z,-1.50
2019-01-25T02:51:45.016Z,-1.50
2019-01-25T02:54:15.812Z,-1.40
2019-01-25T02:56:46.567Z,-1.40
2019-01-25T02:59:17.317Z,-1.40
2019-01-25T03:01:48.074Z,-1.40
2019-01-25T03:04:18.781Z,-1.50
2019-01-25T03:06:49.502Z,-1.50
2019-01-25T03:09:20.285Z,-1.50
2019-01-25T03:11:51.043Z,-1.60
2019-01-25T03:14:21.883Z,-1.50
2019-01-25T03:16:52.699Z,-1.50
2019-01-25T03:19:23.479Z,-1.50
2019-01-25T03:21:54.155Z,-1.50
2019-01-25T03:24:24.951Z,-1.50
2019-01-25T03:26:55.793Z,-1.50
2019-01-25T03:29:26.651Z,-1.50
2019-01-25T03:31:57.413Z,-1.50
2019-01-25T03:34:28.656Z,-1.50
2019-01-25T03:36:59.577Z,-1.50
2019-01-25T03:39:30.463Z,-1.40
2019-01-25T03:42:01.334Z,-1.30
2019-01-25T03:44:32.203Z,-1.30
2019-01-25T03:47:03.059Z,-1.30
2019-01-25T03:49:33.888Z,-1.30
2019-01-25T03:52:04.647Z,-1.40
2019-01-25T03:54:35.467Z,-1.50
2019-01-25T03:57:06.116Z,-1.50
2019-01-25T03:59:37.028Z,-1.60
2019-01-25T04:02:07.814Z,-1.50
2019-01-25T04:04:38.658Z,-1.50
2019-01-25T04:07:09.506Z,-1.40
2019-01-25T04:09:40.302Z,-1.50
2019-01-25T04:12:11.185Z,-1.40
2019-01-25T04:14:41.881Z,-1.50
2019-01-25T04:17:12.737Z,-1.50
2019-01-25T04:19:43.598Z,-1.40
2019-01-25T04:22:14.422Z,-1.50
2019-01-25T04:24:45.302Z,-1.50
2019-01-25T04:27:16.051Z,-1.50
2019-01-25T04:29:46.816Z,-1.40
2019-01-25T04:32:17.721Z,-1.40
2019-01-25T04:34:48.607Z,-1.40
2019-01-25T04:37:19.436Z,-1.40
2019-01-25T04:39:51.693Z,-1.40
2019-01-25T04:42:22.463Z,-1.40
2019-01-25T04:44:53.149Z,-1.40
2019-01-25T04:47:28.470Z,-1.40
2019-01-25T04:49:59.239Z,-1.40
2019-01-25T04:52:31.023Z,-1.40
2019-01-25T04:55:08.268Z,-1.40
2019-01-25T04:57:39.008Z,-1.40
2019-01-25T05:00:11.853Z,-1.40
2019-01-25T05:02:45.431Z,-1.40
2019-01-25T05:05:16.178Z,-1.40
2019-01-25T05:07:46.825Z,-1.50
2019-01-25T05:10:17.482Z,-1.50
2019-01-25T05:12:53.302Z,-1.40
2019-01-25T05:15:24.061Z,-1.40
2019-01-25T05:17:55.159Z,-1.50
2019-01-25T05:20:25.918Z,-1.50
2019-01-25T05:22:58.207Z,-1.40
2019-01-25T05:25:29.075Z,-1.50
2019-01-25T05:28:09.843Z,-1.50
2019-01-25T05:30:52.998Z,-1.40
2019-01-25T05:33:23.707Z,-1.40
2019-01-25T05:35:54.434Z,-1.40
2019-01-25T05:38:26.825Z,-1.40
2019-01-25T05:40:57.620Z,-1.40
2019-01-25T05:43:31.300Z,-1.40
2019-01-25T05:46:02.069Z,-1.40
2019-01-25T05:48:32.848Z,-1.40
2019-01-25T05:51:04.932Z,-1.50
2019-01-25T05:53:35.650Z,-1.40
2019-01-25T05:56:07.006Z,-1.40
2019-01-25T05:58:37.713Z,-1.40
2019-01-25T06:01:08.621Z,-1.40
2019-01-25T06:03:39.500Z,-1.20
2019-01-25T06:06:10.359Z,-1.30
2019-01-25T06:08:44.021Z,-1.30
2019-01-25T06:11:14.203Z,-1.30
2019-01-25T06:13:45.877Z,-1.40
2019-01-25T06:16:17.656Z,-1.30
2019-01-25T06:18:48.296Z,-1.40
2019-01-25T06:21:20.931Z,-1.40
2019-01-25T06:23:54.762Z,-1.40
2019-01-25T06:26:25.545Z,-1.40
2019-01-25T06:28:56.374Z,-1.40
2019-01-25T06:31:27.114Z,-1.40
2019-01-25T06:33:57.832Z,-1.40
2019-01-25T06:36:29.673Z,-1.40
2019-01-25T06:39:00.422Z,-1.40
2019-01-25T06:41:31.151Z,-1.50
2019-01-25T06:44:01.901Z,-1.50
2019-01-25T06:46:32.653Z,-1.50
2019-01-25T06:49:03.401Z,-1.50
2019-01-25T06:51:34.237Z,-1.50
2019-01-25T06:54:04.906Z,-1.50
2019-01-25T06:56:35.700Z,-1.50
2019-01-25T06:59:11.509Z,-1.40
2019-01-25T07:02:01.224Z,-1.40
2019-01-25T07:04:31.958Z,-1.40
2019-01-25T07:07:04.665Z,-1.30
2019-01-25T07:09:35.380Z,-1.40
2019-01-25T07:12:07.082Z,-1.40
2019-01-25T07:14:37.886Z,-1.50
2019-01-25T07:17:08.610Z,-1.40
2019-01-25T07:19:39.490Z,-1.40
2019-01-25T07:22:10.218Z,-1.40
2019-01-25T07:24:40.977Z,-1.40
2019-01-25T07:27:11.746Z,-1.20
2019-01-25T07:29:42.477Z,-1.30
2019-01-25T07:32:13.466Z,-1.30
2019-01-25T07:34:44.165Z,-1.40
2019-01-25T07:37:14.959Z,-1.30
2019-01-25T07:39:46.738Z,-1.30
2019-01-25T07:42:17.639Z,-1.30
2019-01-25T07:44:48.512Z,-1.30
2019-01-25T07:47:19.266Z,-1.30
2019-01-25T07:49:50.215Z,-1.30
2019-01-25T07:52:21.009Z,-1.30
2019-01-25T07:54:52.866Z,-1.20
2019-01-25T07:57:23.835Z,-1.20
2019-01-25T07:59:54.551Z,-1.20
2019-01-25T08:02:25.465Z,-1.20
2019-01-25T08:04:56.217Z,-1.20
2019-01-25T08:07:27.004Z,-1.10
2019-01-25T08:09:57.845Z,-1.00
2019-01-25T08:12:30.265Z,-1.00
2019-01-25T08:15:01.159Z,-1.10
2019-01-25T08:17:32.081Z,-1.10
2019-01-25T08:20:02.949Z,-1.10
2019-01-25T08:22:34.621Z,-1.10
2019-01-25T08:25:06.566Z,-1.10
2019-01-25T08:27:37.420Z,-1.10
2019-01-25T08:30:10.637Z,-1.10
2019-01-25T08:32:41.485Z,-1.00
2019-01-25T08:35:12.905Z,-1.00
2019-01-25T08:37:43.722Z,-1.00
2019-01-25T08:40:14.636Z,-1.00
2019-01-25T08:42:45.563Z,-1.00
2019-01-25T08:45:16.817Z,-1.00
2019-01-25T08:47:48.668Z,-0.90
2019-01-25T08:50:20.763Z,-1.00
2019-01-25T08:52:52.162Z,-0.80
2019-01-25T08:55:23.204Z,-0.80
2019-01-25T08:57:54.077Z,-0.80
2019-01-25T09:00:25.727Z,-0.70
2019-01-25T09:02:56.472Z,-0.70
2019-01-25T09:05:27.236Z,-0.80
2019-01-25T09:07:59.030Z,-0.70
2019-01-25T09:10:30.201Z,-0.70
2019-01-25T09:13:01.094Z,-0.70
2019-01-25T09:15:32.246Z,-0.60
2019-01-25T09:18:03.249Z,-0.50
2019-01-25T09:20:34.099Z,-0.50
2019-01-25T09:23:04.920Z,-0.40
2019-01-25T09:25:36.679Z,-0.40
2019-01-25T09:28:09.106Z,-0.40
2019-01-25T09:30:39.926Z,-0.40
2019-01-25T09:33:10.761Z,-0.40
2019-01-25T09:35:41.579Z,-0.30
2019-01-25T09:38:12.377Z,-0.30
2019-01-25T09:40:43.271Z,-0.20
2019-01-25T09:43:15.092Z,-0.20
2019-01-25T09:45:45.878Z,-0.20
2019-01-25T09:48:16.830Z,-0.20
2019-01-25T09:50:52.666Z,-0.20
2019-01-25T09:53:20.144Z,0.00
2019-01-25T09:55:50.834Z,0.00
2019-01-25T09:58:21.627Z,0.00
2019-01-25T10:00:56.267Z,0.00
2019-01-25T10:03:27.174Z,0.10
2019-01-25T10:05:58.048Z,0.20
2019-01-25T10:08:29.006Z,0.20
2019-01-25T10:10:59.827Z,0.20
2019-01-25T10:13:30.554Z,0.40
2019-01-25T10:16:01.382Z,0.40
2019-01-25T10:18:34.773Z,0.40
2019-01-25T10:21:05.619Z,0.50
2019-01-25T10:23:39.189Z,0.50
2019-01-25T10:26:10.625Z,0.50
2019-01-25T10:28:41.457Z,0.50
2019-01-25T10:31:12.290Z,0.60
2019-01-25T10:33:43.102Z,0.60
2019-01-25T10:36:13.906Z,0.60
2019-01-25T10:38:44.722Z,0.80
2019-01-25T10:41:16.670Z,0.80
2019-01-25T10:43:47.574Z,0.90
2019-01-25T10:46:18.348Z,0.80
2019-01-25T10:48:49.692Z,0.80
2019-01-25T10:51:20.677Z,0.80
2019-01-25T10:53:52.066Z,0.80
2019-01-25T10:56:22.915Z,0.70
2019-01-25T10:58:53.714Z,0.80
2019-01-25T11:01:24.504Z,0.90
2019-01-25T11:03:55.312Z,0.80
2019-01-25T11:06:26.187Z,0.90
2019-01-25T11:08:56.944Z,0.90
2019-01-25T11:11:27.688Z,0.80
2019-01-25T11:13:58.490Z,0.90
2019-01-25T11:16:31.037Z,0.90
2019-01-25T11:19:01.918Z,1.00
2019-01-25T11:21:37.403Z,1.10
2019-01-25T11:24:07.877Z,1.10
2019-01-25T11:26:38.044Z,1.10
2019-01-25T11:29:08.850Z,1.10
2019-01-25T11:31:39.686Z,1.10
2019-01-25T11:34:10.507Z,1.10
2019-01-25T11:36:41.286Z,1.10
2019-01-25T11:39:12.708Z,1.20
2019-01-25T11:41:43.488Z,1.20
2019-01-25T11:44:14.271Z,1.20
2019-01-25T11:46:45.129Z,1.30
2019-01-25T11:49:20.276Z,1.30
2019-01-25T11:51:51.378Z,1.40
2019-01-25T11:54:22.397Z,1.30
2019-01-25T11:56:53.084Z,1.40
2019-01-25T11:59:23.899Z,1.40
2019-01-25T12:01:54.809Z,1.40
2019-01-25T12:04:25.712Z,1.40
2019-01-25T12:06:56.482Z,1.40
2019-01-25T12:09:30.255Z,1.40
2019-01-25T12:12:01.620Z,1.40
2019-01-25T12:14:33.282Z,1.50
2019-01-25T12:17:05.228Z,1.50
2019-01-25T12:19:36.017Z,1.50
2019-01-25T12:22:07.270Z,1.70
2019-01-25T12:24:38.107Z,1.60
2019-01-25T12:27:08.814Z,1.60
2019-01-25T12:29:40.046Z,1.60
2019-01-25T12:32:12.027Z,1.60
2019-01-25T12:34:42.935Z,1.70
2019-01-25T12:37:13.739Z,1.70
2019-01-25T12:39:44.514Z,1.70
2019-01-25T12:42:15.337Z,1.60
2019-01-25T12:44:46.221Z,1.70
2019-01-25T12:47:17.126Z,1.70
2019-01-25T12:49:48.663Z,1.70
2019-01-25T12:52:19.467Z,1.70
2019-01-25T12:54:50.261Z,1.80
2019-01-25T12:57:21.129Z,1.80
2019-01-25T12:59:51.883Z,1.80
2019-01-25T13:02:22.682Z,1.70
2019-01-25T13:04:53.511Z,1.70
2019-01-25T13:07:24.236Z,1.70
2019-01-25T13:09:54.989Z,1.70
2019-01-25T13:12:25.779Z,1.80
2019-01-25T13:14:58.171Z,1.80
2019-01-25T13:17:28.942Z,1.90
2019-01-25T13:20:00.240Z,1.80
2019-01-25T13:22:32.597Z,1.80
2019-01-25T13:25:03.401Z,1.80
2019-01-25T13:27:34.325Z,1.70
2019-01-25T13:30:07.082Z,1.70
2019-01-25T13:32:38.106Z,1.70
2019-01-25T13:35:10.003Z,1.80
2019-01-25T13:37:40.851Z,1.70
2019-01-25T13:40:14.058Z,1.80
2019-01-25T13:42:44.780Z,1.80
2019-01-25T13:45:17.185Z,1.70
2019-01-25T13:47:48.993Z,1.80
2019-01-25T13:50:21.565Z,1.80
2019-01-25T13:52:52.282Z,1.70
2019-01-25T13:55:23.007Z,1.80
2019-01-25T13:57:59.595Z,1.80
2019-01-25T14:00:32.902Z,1.80
2019-01-25T14:03:03.669Z,1.80
2019-01-25T14:05:34.335Z,1.80
2019-01-25T14:08:06.137Z,1.90
2019-01-25T14:10:37.246Z,1.90
2019-01-25T14:13:07.970Z,1.80
2019-01-25T14:15:38.802Z,1.80
2019-01-25T14:18:09.446Z,1.90
2019-01-25T14:20:40.197Z,1.90
2019-01-25T14:23:15.824Z,1.90
2019-01-25T14:25:46.792Z,1.90
2019-01-25T14:28:17.511Z,1.90
2019-01-25T14:30:48.272Z,1.90
2019-01-25T14:33:19.007Z,1.90
2019-01-25T14:35:49.755Z,1.90
2019-01-25T14:38:20.524Z,2.00
2019-01-25T14:40:51.259Z,2.00
2019-01-25T14:43:22.011Z,2.00
2019-01-25T14:45:52.796Z,2.10
2019-01-25T14:48:23.570Z,2.00
2019-01-25T14:50:54.191Z,2.00
2019-01-25T14:53:24.974Z,2.00
2019-01-25T14:55:55.711Z,2.10
2019-01-25T14:58:26.523Z,2.00
2019-01-25T15:00:57.763Z,2.00
2019-01-25T15:03:28.618Z,2.10
2019-01-25T15:05:59.352Z,2.10
2019-01-25T15:08:30.174Z,2.10
2019-01-25T15:11:01.068Z,2.20
2019-01-25T15:13:31.917Z,2.10
2019-01-25T15:16:02.660Z,2.10
2019-01-25T15:18:33.531Z,2.20
2019-01-25T15:21:04.275Z,2.10
2019-01-25T15:23:36.079Z,2.20
2019-01-25T15:26:06.811Z,2.10
2019-01-25T15:28:37.547Z,2.20
2019-01-25T15:31:08.514Z,2.10
2019-01-25T15:33:39.327Z,2.10
2019-01-25T15:36:10.206Z,2.20
2019-01-25T15:38:41.258Z,2.20
2019-01-25T15:41:12.183Z,2.20
2019-01-25T15:43:42.981Z,2.20
2019-01-25T15:46:13.894Z,2.20
2019-01-25T15:48:44.744Z,2.20
2019-01-25T15:51:15.559Z,2.10
2019-01-25T15:53:46.383Z,2.20
2019-01-25T15:56:18.758Z,2.30
2019-01-25T15:58:50.822Z,2.30
2019-01-25T16:01:21.675Z,2.20
2019-01-25T16:03:52.445Z,2.20
2019-01-25T16:06:23.229Z,2.30
2019-01-25T16:08:54.044Z,2.30
2019-01-25T16:11:24.866Z,2.30
2019-01-25T16:13:55.591Z,2.30
2019-01-25T16:16:26.393Z,2.30
2019-01-25T16:18:57.173Z,2.30
2019-01-25T16:21:27.897Z,2.40
2019-01-25T16:23:58.760Z,2.30
2019-01-25T16:26:30.050Z,2.30
2019-01-25T16:29:00.788Z,2.30
2019-01-25T16:31:32.421Z,2.30
2019-01-25T16:34:03.652Z,2.40
2019-01-25T16:36:34.284Z,2.30
2019-01-25T16:39:08.368Z,2.30
2019-01-25T16:41:39.111Z,2.40
2019-01-25T16:44:09.896Z,2.30
2019-01-25T16:46:40.575Z,2.30
2019-01-25T16:49:11.303Z,2.40
2019-01-25T16:51:42.027Z,2.40
2019-01-25T16:54:12.787Z,2.50
2019-01-25T16:56:43.484Z,2.40
2019-01-25T16:59:14.163Z,2.50
2019-01-25T17:01:44.965Z,2.50
2019-01-25T17:04:16.745Z,2.50
2019-01-25T17:06:47.514Z,2.50
2019-01-25T17:09:18.286Z,2.50
2019-01-25T17:11:49.120Z,2.50
2019-01-25T17:14:19.942Z,2.60
2019-01-25T17:16:50.682Z,2.60
2019-01-25T17:19:21.508Z,2.70
2019-01-25T17:21:52.254Z,2.70
2019-01-25T17:24:22.965Z,2.60
2019-01-25T17:26:53.760Z,2.60
2019-01-25T17:29:24.725Z,2.70
2019-01-25T17:31:55.448Z,2.70
2019-01-25T17:34:26.187Z,2.70
2019-01-25T17:36:56.974Z,2.70
2019-01-25T17:39:27.779Z,2.70
2019-01-25T17:41:58.572Z,2.70
2019-01-25T17:44:29.378Z,2.70
2019-01-25T17:47:01.846Z,2.70
2019-01-25T17:49:32.660Z,2.80
2019-01-25T17:52:04.519Z,2.70
2019-01-25T17:54:36.906Z,2.70
2019-01-25T17:57:07.748Z,2.70
2019-01-25T17:59:39.498Z,2.70
2019-01-25T18:02:10.348Z,2.80
2019-01-25T18:04:41.149Z,2.90
2019-01-25T18:07:12.010Z,2.90
2019-01-25T18:09:42.792Z,2.90
2019-01-25T18:12:15.820Z,2.90
2019-01-25T18:14:49.448Z,3.00
2019-01-25T18:17:21.155Z,3.00
2019-01-25T18:19:51.942Z,3.00
2019-01-25T18:22:22.794Z,3.00
2019-01-25T18:24:53.598Z,3.00
2019-01-25T18:27:26.063Z,3.00
2019-01-25T18:29:59.558Z,3.00
2019-01-25T18:32:30.491Z,3.10
2019-01-25T18:35:01.325Z,3.10
2019-01-25T18:37:33.859Z,3.10
2019-01-25T18:40:06.216Z,3.10
2019-01-25T18:42:37.398Z,3.10
2019-01-25T18:45:08.466Z,3.10
2019-01-25T18:47:39.343Z,3.20
2019-01-25T18:50:11.950Z,3.20
2019-01-25T18:52:42.710Z,3.20
2019-01-25T18:55:16.081Z,3.20
2019-01-25T18:57:47.974Z,3.20
2019-01-25T19:00:20.074Z,3.30
2019-01-25T19:02:50.919Z,3.30
2019-01-25T19:05:21.619Z,3.40
2019-01-25T19:07:52.675Z,3.40
2019-01-25T19:10:24.928Z,3.40
2019-01-25T19:12:55.806Z,3.40
2019-01-25T19:15:28.177Z,3.40
2019-01-25T19:18:00.075Z,3.50
2019-01-25T19:20:30.845Z,3.50
2019-01-25T19:23:01.758Z,3.50
2019-01-25T19:25:32.669Z,3.50
2019-01-25T19:28:03.731Z,3.60
2019-01-25T19:30:37.243Z,3.60
2019-01-25T19:33:08.831Z,3.70
2019-01-25T19:35:39.706Z,3.70
2019-01-25T19:38:12.345Z,3.80
2019-01-25T19:40:43.138Z,3.90
2019-01-25T19:43:13.820Z,4.00
2019-01-25T19:45:45.106Z,4.10
2019-01-25T19:48:16.577Z,4.20
2019-01-25T19:50:47.350Z,4.10
2019-01-25T19:53:18.227Z,4.20
2019-01-25T19:55:49.077Z,4.30
2019-01-25T19:58:20.491Z,4.40
2019-01-25T20:00:51.248Z,4.70
2019-01-25T20:03:21.981Z,4.70
2019-01-25T20:05:53.280Z,4.80
2019-01-25T20:08:23.983Z,4.90
2019-01-25T20:10:54.608Z,4.90
2019-01-25T20:13:25.390Z,5.00
2019-01-25T20:15:56.117Z,5.00
2019-01-25T20:18:26.852Z,5.10
2019-01-25T20:20:57.657Z,5.10
2019-01-25T20:23:28.487Z,5.20
2019-01-25T20:25:59.302Z,5.20
2019-01-25T20:28:31.082Z,5.30
2019-01-25T20:31:01.902Z,5.30
2019-01-25T20:33:33.961Z,5.30
2019-01-25T20:36:05.061Z,5.30
2019-01-25T20:38:35.771Z,5.30
2019-01-25T20:41:08.034Z,5.30
2019-01-25T20:43:38.789Z,5.30
2019-01-25T20:46:09.538Z,5.40
2019-01-25T20:48:41.225Z,5.30
2019-01-25T20:51:12.010Z,5.40
2019-01-25T20:53:42.798Z,5.30
2019-01-25T20:56:13.525Z,5.40
2019-01-25T20:58:44.261Z,5.50
2019-01-25T21:01:15.010Z,5.50
2019-01-25T21:03:45.861Z,5.60
2019-01-25T21:06:16.621Z,5.70
2019-01-25T21:08:47.481Z,5.70
2019-01-25T21:11:18.249Z,5.60
2019-01-25T21:13:49.051Z,5.60
2019-01-25T21:16:19.894Z,5.70
2019-01-25T21:18:50.654Z,5.80
2019-01-25T21:21:21.468Z,5.90
2019-01-25T21:23:52.182Z,5.90
2019-01-25T21:26:22.879Z,6.00
2019-01-25T21:28:53.637Z,6.10
2019-01-25T21:31:24.282Z,6.10
2019-01-25T21:33:54.961Z,6.10
2019-01-25T21:36:25.671Z,6.10
2019-01-25T21:38:56.443Z,6.20
2019-01-25T21:41:28.288Z,6.20
2019-01-25T21:44:00.002Z,6.20
2019-01-25T21:46:30.818Z,6.20
2019-01-25T21:49:01.997Z,6.30
2019-01-25T21:51:33.667Z,6.30
2019-01-25T21:54:04.611Z,6.30
2019-01-25T21:56:35.337Z,6.30
2019-01-25T21:59:06.710Z,6.30
2019-01-25T22:01:37.470Z,6.30
2019-01-25T22:04:08.157Z,6.40
2019-01-25T22:06:39.030Z,6.40
2019-01-25T22:09:11.436Z,6.40
2019-01-25T22:11:42.432Z,6.40
2019-01-25T22:14:13.261Z,6.40
2019-01-25T22:16:43.922Z,6.40
2019-01-25T22:19:14.670Z,6.40
2019-01-25T22:21:45.445Z,6.40
2019-01-25T22:24:16.248Z,6.40
2019-01-25T22:26:47.051Z,6.40
2019-01-25T22:29:17.795Z,6.40
2019-01-25T22:31:49.526Z,6.40
2019-01-25T22:34:20.185Z,6.40
2019-01-25T22:36:50.961Z,6.40
2019-01-25T22:39:21.700Z,6.40
2019-01-25T22:41:52.402Z,6.40
2019-01-25T22:44:23.146Z,6.40
2019-01-25T22:46:53.998Z,6.40
2019-01-25T22:49:25.278Z,6.40
2019-01-25T22:51:56.042Z,6.40
2019-01-25T22:54:26.841Z,6.30
2019-01-25T22:56:57.562Z,6.30
2019-01-25T22:59:28.289Z,6.30
2019-01-25T23:01:59.014Z,6.40
2019-01-25T23:05:10.004Z,6.40
2019-01-25T23:07:40.785Z,6.40
2019-01-25T23:10:17.013Z,6.40
2019-01-25T23:12:47.631Z,6.40
2019-01-25T23:15:18.931Z,6.40
2019-01-25T23:17:49.621Z,6.40
2019-01-25T23:20:20.353Z,6.40
2019-01-25T23:22:51.070Z,6.40
2019-01-25T23:25:23.371Z,6.40
2019-01-25T23:27:55.590Z,6.40
2019-01-25T23:30:27.217Z,6.40
2019-01-25T23:32:59.437Z,6.40
2019-01-25T23:35:30.283Z,6.50
2019-01-25T23:38:01.045Z,6.50
2019-01-25T23:40:33.366Z,6.50
2019-01-25T23:43:04.113Z,6.50
2019-01-25T23:45:34.862Z,6.50
2019-01-25T23:48:05.775Z,6.60
2019-01-25T23:50:36.540Z,6.60
2019-01-25T23:53:07.307Z,6.70
2019-01-25T23:55:38.076Z,6.70
2019-01-25T23:58:08.836Z,6.80
